Time,TemperatureF,DewpointF,PressureIn,WindDirection,WindDirectionDegrees,WindSpeedMPH,WindSpeedGustMPH,Humidity,HourlyPrecipIn,Conditions,Clouds,dailyrainin,SoftwareType,DateUTC
2013-01-14 00:00:00,2.0,-2.2,30.50,SSE,155,0.0,0.0,82,0.00,,,0.00,WeatherCatV1.11B39,2013-01-14 07:00:00,
2013-01-14 00:05:00,1.6,-2.6,30.50,SSW,197,0.0,1.0,82,0.00,,,0.00,WeatherCatV1.11B39,2013-01-14 07:05:00,
2013-01-14 00:10:00,1.0,-2.9,30.50,SSE,159,0.0,0.0,83,0.00,,,0.00,WeatherCatV1.11B39,2013-01-14 07:10:00,
2013-01-14 00:15:00,0.5,-3.4,30.50,SSE,159,0.0,0.0,83,0.00,,,0.00,WeatherCatV1.11B39,2013-01-14 07:15:00,
2013-01-14 00:20:00,0.2,-3.5,30.50,SSE,159,0.0,0.0,84,0.00,,,0.00,WeatherCatV1.11B39,2013-01-14 07:20:00,
2013-01-14 00:25:00,-0.1,-3.8,30.50,SSE,159,0.0,0.0,84,0.00,,,0.00,WeatherCatV1.11B39,2013-01-14 07:25:00,
2013-01-14 00:30:00,-0.5,-4.4,30.50,SSE,159,0.0,0.0,83,0.00,,,0.00,WeatherCatV1.11B39,2013-01-14 07:30:00,
2013-01-14 00:35:00,-0.8,-4.4,30.50,SSE,159,0.0,0.0,84,0.00,,,0.00,WeatherCatV1.11B39,2013-01-14 07:35:00,
2013-01-14 00:40:00,-1.0,-4.6,30.50,SSE,159,0.0,1.0,84,0.00,,,0.00,WeatherCatV1.11B39,2013-01-14 07:40:00,
2013-01-14 00:45:00,-1.1,-5.0,30.51,South,184,0.0,1.0,83,0.00,,,0.00,WeatherCatV1.11B39,2013-01-14 07:45:00,
2013-01-14 00:50:00,-1.3,-5.2,30.50,SSE,157,0.0,1.0,83,0.00,,,0.00,WeatherCatV1.11B39,2013-01-14 07:50:00,
2013-01-14 00:55:00,-1.5,-4.9,30.51,SSE,154,0.0,0.0,85,0.00,,,0.00,WeatherCatV1.11B39,2013-01-14 07:55:00,
2013-01-14 01:00:00,-1.7,-4.8,30.51,SSE,154,0.0,0.0,86,0.00,,,0.00,WeatherCatV1.11B39,2013-01-14 08:00:00,
2013-01-14 01:05:00,-1.9,-5.0,30.51,SSE,154,0.0,0.0,86,0.00,,,0.00,WeatherCatV1.11B39,2013-01-14 08:05:00,
2013-01-14 01:10:00,-2.1,-5.2,30.51,SSE,153,0.0,0.0,86,0.00,,,0.00,WeatherCatV1.11B39,2013-01-14 08:10:00,
2013-01-14 01:15:00,-2.4,-5.3,30.51,SSE,154,0.0,0.0,87,0.00,,,0.00,WeatherCatV1.11B39,2013-01-14 08:15:00,
2013-01-14 01:20:00,-2.5,-5.4,30.51,SSE,154,0.0,0.0,87,0.00,,,0.00,WeatherCatV1.11B39,2013-01-14 08:20:00,
2013-01-14 01:25:00,-2.4,-5.3,30.51,South,186,0.0,0.0,87,0.00,,,0.00,WeatherCatV1.11B39,2013-01-14 08:25:00,
2013-01-14 01:30:00,-2.2,-5.3,30.51,SW,233,0.0,0.0,86,0.00,,,0.00,WeatherCatV1.11B39,2013-01-14 08:30:00,
2013-01-14 01:35:00,-2.2,-5.6,30.51,SSE,165,0.0,0.0,85,0.00,,,0.00,WeatherCatV1.11B39,2013-01-14 08:35:00,
2013-01-14 01:40:00,-2.2,-5.1,30.51,SE,129,0.0,1.0,87,0.00,,,0.00,WeatherCatV1.11B39,2013-01-14 08:40:00,
2013-01-14 01:43:00,-2.1,-5.0,30.51,South,172,0.0,1.0,87,0.00,,,0.00,WeatherCatV1.11B39,2013-01-14 08:43:00,
2013-01-14 01:48:00,-2.1,-5.0,30.52,South,172,0.0,0.0,87,0.00,,,0.00,WeatherCatV1.11B39,2013-01-14 08:48:00,
2013-01-14 01:53:00,-2.1,-5.0,30.52,South,172,0.0,0.0,87,0.00,,,0.00,WeatherCatV1.11B39,2013-01-14 08:53:00,
2013-01-14 01:58:00,-2.1,-5.0,30.52,South,172,0.0,0.0,87,0.00,,,0.00,WeatherCatV1.11B39,2013-01-14 08:58:00,
2013-01-14 02:03:00,-2.1,-5.2,30.52,South,172,0.0,0.0,86,0.00,,,0.00,WeatherCatV1.11B39,2013-01-14 09:03:00,
2013-01-14 02:08:00,-1.9,-4.8,30.52,South,172,0.0,0.0,87,0.00,,,0.00,WeatherCatV1.11B39,2013-01-14 09:08:00,
2013-01-14 02:13:00,-1.9,-4.8,30.52,South,172,0.0,0.0,87,0.00,,,0.00,WeatherCatV1.11B39,2013-01-14 09:13:00,
2013-01-14 02:18:00,-1.8,-4.7,30.52,South,170,0.0,0.0,87,0.00,,,0.00,WeatherCatV1.11B39,2013-01-14 09:18:00,
2013-01-14 02:23:00,-1.8,-4.7,30.52,South,170,0.0,0.0,87,0.00,,,0.00,WeatherCatV1.11B39,2013-01-14 09:23:00,
2013-01-14 02:28:00,-1.8,-4.7,30.53,South,171,0.0,0.0,87,0.00,,,0.00,WeatherCatV1.11B39,2013-01-14 09:28:00,
2013-01-14 02:33:00,-1.9,-4.8,30.53,South,170,0.0,0.0,87,0.00,,,0.00,WeatherCatV1.11B39,2013-01-14 09:33:00,
2013-01-14 02:38:00,-1.9,-4.8,30.53,South,171,0.0,0.0,87,0.00,,,0.00,WeatherCatV1.11B39,2013-01-14 09:38:00,
2013-01-14 02:43:00,-1.9,-4.8,30.53,South,170,0.0,0.0,87,0.00,,,0.00,WeatherCatV1.11B39,2013-01-14 09:43:00,
2013-01-14 02:48:00,-1.9,-4.8,30.54,South,170,0.0,0.0,87,0.00,,,0.00,WeatherCatV1.11B39,2013-01-14 09:48:00,
2013-01-14 02:53:00,-1.8,-4.5,30.54,SSE,160,0.0,0.0,88,0.00,,,0.00,WeatherCatV1.11B39,2013-01-14 09:53:00,
2013-01-14 02:58:00,-1.7,-4.6,30.54,SSE,160,0.0,0.0,87,0.00,,,0.00,WeatherCatV1.11B39,2013-01-14 09:58:00,
2013-01-14 03:03:00,-1.6,-4.5,30.54,SSE,160,0.0,0.0,87,0.00,,,0.00,WeatherCatV1.11B39,2013-01-14 10:03:00,
2013-01-14 03:08:00,-1.6,-4.5,30.54,SSE,160,0.0,0.0,87,0.00,,,0.00,WeatherCatV1.11B39,2013-01-14 10:08:00,
2013-01-14 03:13:00,-1.4,-4.3,30.54,SSE,160,0.0,0.0,87,0.00,,,0.00,WeatherCatV1.11B39,2013-01-14 10:13:00,
2013-01-14 03:18:00,-1.4,-4.3,30.54,SSE,160,0.0,0.0,87,0.00,,,0.00,WeatherCatV1.11B39,2013-01-14 10:18:00,
2013-01-14 03:23:00,-1.4,-4.3,30.54,SSE,161,0.0,0.0,87,0.00,,,0.00,WeatherCatV1.11B39,2013-01-14 10:23:00,
2013-01-14 03:28:00,-1.3,-4.2,30.54,SSE,161,0.0,0.0,87,0.00,,,0.00,WeatherCatV1.11B39,2013-01-14 10:28:00,
2013-01-14 03:33:00,-1.2,-4.1,30.54,SSE,161,0.0,0.0,87,0.00,,,0.00,WeatherCatV1.11B39,2013-01-14 10:33:00,
2013-01-14 03:38:00,-1.0,-4.2,30.53,SSE,158,0.0,0.0,86,0.00,,,0.00,WeatherCatV1.11B39,2013-01-14 10:38:00,
2013-01-14 03:43:00,-1.0,-4.2,30.53,SSE,167,0.0,0.0,86,0.00,,,0.00,WeatherCatV1.11B39,2013-01-14 10:43:00,
2013-01-14 03:48:00,-1.0,-4.2,30.53,South,177,1.0,1.0,86,0.00,,,0.00,WeatherCatV1.11B39,2013-01-14 10:48:00,
2013-01-14 03:53:00,-1.1,-4.3,30.54,South,169,0.0,0.0,86,0.00,,,0.00,WeatherCatV1.11B39,2013-01-14 10:53:00,
2013-01-14 03:58:00,-1.1,-4.3,30.53,South,169,0.0,0.0,86,0.00,,,0.00,WeatherCatV1.11B39,2013-01-14 10:58:00,
2013-01-14 04:03:00,-1.3,-4.7,30.53,South,169,0.0,0.0,85,0.00,,,0.00,WeatherCatV1.11B39,2013-01-14 11:03:00,
2013-01-14 04:08:00,-1.5,-4.6,30.53,South,169,0.0,0.0,86,0.00,,,0.00,WeatherCatV1.11B39,2013-01-14 11:08:00,
2013-01-14 04:13:00,-1.5,-4.6,30.53,SSW,212,0.0,0.0,86,0.00,,,0.00,WeatherCatV1.11B39,2013-01-14 11:13:00,
2013-01-14 04:18:00,-1.6,-4.7,30.53,SSW,212,0.0,0.0,86,0.00,,,0.00,WeatherCatV1.11B39,2013-01-14 11:18:00,
2013-01-14 04:23:00,-1.8,-4.9,30.54,WNW,302,0.0,0.0,86,0.00,,,0.00,WeatherCatV1.11B39,2013-01-14 11:23:00,
2013-01-14 04:28:00,-2.0,-5.1,30.54,WNW,302,0.0,0.0,86,0.00,,,0.00,WeatherCatV1.11B39,2013-01-14 11:28:00,
2013-01-14 04:33:00,-2.4,-5.8,30.54,WNW,302,0.0,0.0,85,0.00,,,0.00,WeatherCatV1.11B39,2013-01-14 11:33:00,
2013-01-14 04:38:00,-2.6,-5.7,30.54,WNW,302,0.0,0.0,86,0.00,,,0.00,WeatherCatV1.11B39,2013-01-14 11:38:00,
2013-01-14 04:43:00,-2.9,-6.0,30.54,WNW,302,0.0,0.0,86,0.00,,,0.00,WeatherCatV1.11B39,2013-01-14 11:43:00,
2013-01-14 04:48:00,-3.2,-6.3,30.54,WNW,302,0.0,0.0,86,0.00,,,0.00,WeatherCatV1.11B39,2013-01-14 11:48:00,
2013-01-14 04:53:00,-3.3,-6.2,30.54,SSE,163,0.0,0.0,87,0.00,,,0.00,WeatherCatV1.11B39,2013-01-14 11:53:00,
2013-01-14 04:58:00,-3.4,-6.5,30.54,SE,134,0.0,0.0,86,0.00,,,0.00,WeatherCatV1.11B39,2013-01-14 11:58:00,
2013-01-14 05:03:00,-3.7,-7.1,30.54,SE,134,0.0,0.0,85,0.00,,,0.00,WeatherCatV1.11B39,2013-01-14 12:03:00,
2013-01-14 05:08:00,-3.7,-7.1,30.54,SE,134,0.0,0.0,85,0.00,,,0.00,WeatherCatV1.11B39,2013-01-14 12:08:00,
2013-01-14 05:13:00,-3.8,-7.2,30.54,SE,134,0.0,0.0,85,0.00,,,0.00,WeatherCatV1.11B39,2013-01-14 12:13:00,
2013-01-14 05:18:00,-3.9,-7.2,30.55,SE,134,0.0,0.0,85,0.00,,,0.00,WeatherCatV1.11B39,2013-01-14 12:18:00,
2013-01-14 05:23:00,-3.9,-7.2,30.54,SE,134,0.0,0.0,85,0.00,,,0.00,WeatherCatV1.11B39,2013-01-14 12:23:00,
2013-01-14 05:28:00,-3.9,-7.2,30.54,SE,134,0.0,0.0,85,0.00,,,0.00,WeatherCatV1.11B39,2013-01-14 12:28:00,
2013-01-14 05:33:00,-4.0,-7.3,30.54,SE,134,0.0,0.0,85,0.00,,,0.00,WeatherCatV1.11B39,2013-01-14 12:33:00,
2013-01-14 05:38:00,-4.1,-7.4,30.55,SE,134,0.0,0.0,85,0.00,,,0.00,WeatherCatV1.11B39,2013-01-14 12:38:00,
2013-01-14 05:43:00,-4.1,-7.4,30.55,SE,134,0.0,0.0,85,0.00,,,0.00,WeatherCatV1.11B39,2013-01-14 12:43:00,
2013-01-14 05:48:00,-4.2,-7.3,30.55,SE,134,0.0,0.0,86,0.00,,,0.00,WeatherCatV1.11B39,2013-01-14 12:48:00,
2013-01-14 05:53:00,-4.2,-7.3,30.56,SSE,166,0.0,0.0,86,0.00,,,0.00,WeatherCatV1.11B39,2013-01-14 12:53:00,
2013-01-14 05:58:00,-4.3,-7.6,30.56,SSE,166,0.0,0.0,85,0.00,,,0.00,WeatherCatV1.11B39,2013-01-14 12:58:00,
2013-01-14 06:03:00,-4.2,-7.3,30.56,WNW,302,0.0,0.0,86,0.00,,,0.00,WeatherCatV1.11B39,2013-01-14 13:03:00,
2013-01-14 06:08:00,-4.2,-7.5,30.56,NW,309,0.0,0.0,85,0.00,,,0.00,WeatherCatV1.11B39,2013-01-14 13:08:00,
2013-01-14 06:13:00,-4.3,-7.6,30.56,NW,309,0.0,0.0,85,0.00,,,0.00,WeatherCatV1.11B39,2013-01-14 13:13:00,
2013-01-14 06:18:00,-4.5,-7.8,30.57,South,169,0.0,0.0,85,0.00,,,0.00,WeatherCatV1.11B39,2013-01-14 13:18:00,
2013-01-14 06:23:00,-4.8,-8.1,30.57,South,169,0.0,0.0,85,0.00,,,0.00,WeatherCatV1.11B39,2013-01-14 13:23:00,
2013-01-14 06:28:00,-5.0,-8.1,30.57,South,169,0.0,0.0,86,0.00,,,0.00,WeatherCatV1.11B39,2013-01-14 13:28:00,
2013-01-14 06:33:00,-5.2,-8.3,30.58,South,169,0.0,0.0,86,0.00,,,0.00,WeatherCatV1.11B39,2013-01-14 13:33:00,
2013-01-14 06:38:00,-5.3,-8.6,30.58,South,169,0.0,0.0,85,0.00,,,0.00,WeatherCatV1.11B39,2013-01-14 13:38:00,
2013-01-14 06:43:00,-5.6,-8.9,30.58,South,169,0.0,0.0,85,0.00,,,0.00,WeatherCatV1.11B39,2013-01-14 13:43:00,
2013-01-14 06:48:00,-6.1,-9.7,30.58,South,169,0.0,0.0,84,0.00,,,0.00,WeatherCatV1.11B39,2013-01-14 13:48:00,
2013-01-14 06:53:00,-6.5,-10.0,30.59,South,169,0.0,0.0,84,0.00,,,0.00,WeatherCatV1.11B39,2013-01-14 13:53:00,
2013-01-14 06:58:00,-6.9,-10.4,30.59,South,169,0.0,0.0,84,0.00,,,0.00,WeatherCatV1.11B39,2013-01-14 13:58:00,
2013-01-14 07:03:00,-7.4,-11.2,30.59,South,169,0.0,0.0,83,0.00,,,0.00,WeatherCatV1.11B39,2013-01-14 14:03:00,
2013-01-14 07:08:00,-7.8,-11.1,30.59,South,169,0.0,0.0,85,0.00,,,0.00,WeatherCatV1.11B39,2013-01-14 14:08:00,
2013-01-14 07:13:00,-7.9,-10.9,30.59,South,169,0.0,0.0,86,0.00,,,0.00,WeatherCatV1.11B39,2013-01-14 14:13:00,
2013-01-14 07:18:00,-7.8,-10.6,30.60,South,169,0.0,0.0,87,0.00,,,0.00,WeatherCatV1.11B39,2013-01-14 14:18:00,
2013-01-14 07:23:00,-7.9,-10.7,30.60,SE,139,0.0,0.0,87,0.00,,,0.00,WeatherCatV1.11B39,2013-01-14 14:23:00,
2013-01-14 07:28:00,-7.9,-10.9,30.60,SSE,160,0.0,0.0,86,0.00,,,0.00,WeatherCatV1.11B39,2013-01-14 14:28:00,
2013-01-14 07:33:00,-7.9,-10.9,30.60,SSE,157,0.0,0.0,86,0.00,,,0.00,WeatherCatV1.11B39,2013-01-14 14:33:00,
2013-01-14 07:38:00,-7.8,-10.8,30.60,SE,136,0.0,1.0,86,0.00,,,0.00,WeatherCatV1.11B39,2013-01-14 14:38:00,
2013-01-14 07:43:00,-7.6,-10.7,30.60,SSE,148,0.0,1.0,86,0.00,,,0.00,WeatherCatV1.11B39,2013-01-14 14:43:00,
2013-01-14 07:48:00,-7.3,-10.4,30.60,SSE,157,0.0,1.0,86,0.00,,,0.00,WeatherCatV1.11B39,2013-01-14 14:48:00,
2013-01-14 07:53:00,-7.0,-10.3,30.60,SSE,165,0.0,1.0,85,0.00,,,0.00,WeatherCatV1.11B39,2013-01-14 14:53:00,
2013-01-14 07:58:00,-6.7,-10.0,30.60,SE,139,0.0,1.0,85,0.00,,,0.00,WeatherCatV1.11B39,2013-01-14 14:58:00,
2013-01-14 08:03:00,-6.3,-9.6,30.61,SSE,147,0.0,2.0,85,0.00,,,0.00,WeatherCatV1.11B39,2013-01-14 15:03:00,
2013-01-14 08:08:00,-5.7,-9.0,30.61,SSE,167,0.0,0.0,85,0.00,,,0.00,WeatherCatV1.11B39,2013-01-14 15:08:00,
2013-01-14 08:13:00,-4.7,-8.0,30.61,SSE,167,0.0,0.0,85,0.00,,,0.00,WeatherCatV1.11B39,2013-01-14 15:13:00,
2013-01-14 08:18:00,-3.4,-7.0,30.61,ESE,119,0.0,0.0,84,0.00,,,0.00,WeatherCatV1.11B39,2013-01-14 15:18:00,
2013-01-14 08:23:00,-2.5,-6.9,30.61,East,100,0.0,0.0,81,0.00,,,0.00,WeatherCatV1.11B39,2013-01-14 15:23:00,
2013-01-14 08:28:00,-1.8,-6.4,30.61,SSE,150,0.0,1.0,80,0.00,,,0.00,WeatherCatV1.11B39,2013-01-14 15:28:00,
2013-01-14 08:33:00,-1.3,-6.2,30.61,WNW,284,0.0,0.0,79,0.00,,,0.00,WeatherCatV1.11B39,2013-01-14 15:33:00,
2013-01-14 08:38:00,-0.7,-5.6,30.61,West,269,0.0,1.0,79,0.00,,,0.00,WeatherCatV1.11B39,2013-01-14 15:38:00,
2013-01-14 08:43:00,-0.6,-6.0,30.61,WSW,242,0.0,0.0,77,0.00,,,0.00,WeatherCatV1.11B39,2013-01-14 15:43:00,
2013-01-14 08:48:00,0.0,-5.5,30.61,SSE,162,0.0,0.0,77,0.00,,,0.00,WeatherCatV1.11B39,2013-01-14 15:48:00,
2013-01-14 08:53:00,1.0,-5.0,30.61,SSE,162,0.0,0.0,75,0.00,,,0.00,WeatherCatV1.11B39,2013-01-14 15:53:00,
2013-01-14 08:58:00,2.1,-4.5,30.61,SW,221,0.0,0.0,73,0.00,,,0.00,WeatherCatV1.11B39,2013-01-14 15:58:00,
2013-01-14 09:03:00,2.4,-4.5,30.61,NNE,16,0.0,1.0,72,0.00,,,0.00,WeatherCatV1.11B39,2013-01-14 16:03:00,
2013-01-14 09:08:00,2.5,-4.4,30.61,North,352,0.0,1.0,72,0.00,,,0.00,WeatherCatV1.11B39,2013-01-14 16:08:00,
2013-01-14 09:13:00,2.1,-4.8,30.61,ENE,74,1.0,2.0,72,0.00,,,0.00,WeatherCatV1.11B39,2013-01-14 16:13:00,
2013-01-14 09:18:00,1.9,-4.4,30.61,East,82,0.0,2.0,74,0.00,,,0.00,WeatherCatV1.11B39,2013-01-14 16:18:00,
2013-01-14 09:23:00,2.5,-3.9,30.61,NE,38,1.0,1.0,74,0.00,,,0.00,WeatherCatV1.11B39,2013-01-14 16:23:00,
2013-01-14 09:28:00,2.8,-3.6,30.61,NNW,342,1.0,1.0,74,0.00,,,0.00,WeatherCatV1.11B39,2013-01-14 16:28:00,
2013-01-14 09:33:00,3.3,-3.4,30.60,ESE,103,1.0,1.0,73,0.00,,,0.00,WeatherCatV1.11B39,2013-01-14 16:33:00,
2013-01-14 09:38:00,3.7,-3.0,30.60,NE,43,0.0,1.0,73,0.00,,,0.00,WeatherCatV1.11B39,2013-01-14 16:38:00,
2013-01-14 09:43:00,5.3,-2.3,30.60,SE,140,1.0,2.0,70,0.00,,,0.00,WeatherCatV1.11B39,2013-01-14 16:43:00,
2013-01-14 09:48:00,6.1,-2.2,30.60,WSW,246,2.0,3.0,68,0.00,,,0.00,WeatherCatV1.11B39,2013-01-14 16:48:00,
2013-01-14 09:53:00,5.8,-2.8,30.60,SSW,200,2.0,4.0,67,0.00,,,0.00,WeatherCatV1.11B39,2013-01-14 16:53:00,
2013-01-14 09:58:00,5.8,-2.4,30.60,SSE,159,1.0,3.0,68,0.00,,,0.00,WeatherCatV1.11B39,2013-01-14 16:58:00,
2013-01-14 10:03:00,6.0,-2.6,30.60,East,86,1.0,2.0,67,0.00,,,0.00,WeatherCatV1.11B39,2013-01-14 17:03:00,
2013-01-14 10:08:00,6.0,-2.6,30.59,SSE,163,3.0,4.0,67,0.00,,,0.00,WeatherCatV1.11B39,2013-01-14 17:08:00,
2013-01-14 10:13:00,5.5,-3.4,30.59,SSE,167,2.0,4.0,66,0.00,,,0.00,WeatherCatV1.11B39,2013-01-14 17:13:00,
2013-01-14 10:18:00,5.2,-3.0,30.59,ENE,75,1.0,2.0,68,0.00,,,0.00,WeatherCatV1.11B39,2013-01-14 17:18:00,
2013-01-14 10:23:00,5.8,-2.8,30.58,WSW,250,0.0,3.0,67,0.00,,,0.00,WeatherCatV1.11B39,2013-01-14 17:23:00,
2013-01-14 10:28:00,6.2,-2.7,30.58,South,170,2.0,3.0,66,0.00,,,0.00,WeatherCatV1.11B39,2013-01-14 17:28:00,
2013-01-14 10:33:00,6.2,-3.0,30.58,ESE,106,2.0,2.0,65,0.00,,,0.00,WeatherCatV1.11B39,2013-01-14 17:33:00,
2013-01-14 10:38:00,6.1,-2.8,30.58,SSE,160,2.0,3.0,66,0.00,,,0.00,WeatherCatV1.11B39,2013-01-14 17:38:00,
2013-01-14 10:43:00,6.5,-2.4,30.57,ESE,104,0.0,1.0,66,0.00,,,0.00,WeatherCatV1.11B39,2013-01-14 17:43:00,
2013-01-14 10:48:00,7.4,-2.5,30.57,SSE,157,0.0,2.0,63,0.00,,,0.00,WeatherCatV1.11B39,2013-01-14 17:48:00,
2013-01-14 10:53:00,8.7,-1.3,30.57,East,88,1.0,1.0,63,0.00,,,0.00,WeatherCatV1.11B39,2013-01-14 17:53:00,
2013-01-14 10:58:00,9.3,-1.0,30.56,ESE,116,1.0,1.0,62,0.00,,,0.00,WeatherCatV1.11B39,2013-01-14 17:58:00,
2013-01-14 11:03:00,8.7,-2.0,30.56,East,82,0.0,1.0,61,0.00,,,0.00,WeatherCatV1.11B39,2013-01-14 18:03:00,
2013-01-14 11:08:00,8.9,-1.8,30.56,NNW,327,1.0,1.0,61,0.00,,,0.00,WeatherCatV1.11B39,2013-01-14 18:08:00,
2013-01-14 11:13:00,8.9,-1.8,30.55,North,354,1.0,2.0,61,0.00,,,0.00,WeatherCatV1.11B39,2013-01-14 18:13:00,
2013-01-14 11:18:00,9.5,-0.9,30.55,NE,39,1.0,3.0,62,0.00,,,0.00,WeatherCatV1.11B39,2013-01-14 18:18:00,
2013-01-14 11:23:00,9.3,-2.1,30.55,NNE,23,1.0,1.0,59,0.00,,,0.00,WeatherCatV1.11B39,2013-01-14 18:23:00,
2013-01-14 11:28:00,9.5,-1.2,30.54,NNW,342,4.0,4.0,61,0.00,,,0.00,WeatherCatV1.11B39,2013-01-14 18:28:00,
2013-01-14 11:33:00,9.3,-1.0,30.53,NNW,333,2.0,3.0,62,0.00,,,0.00,WeatherCatV1.11B39,2013-01-14 18:33:00,
2013-01-14 11:38:00,9.5,-1.2,30.53,ENE,61,2.0,2.0,61,0.00,,,0.00,WeatherCatV1.11B39,2013-01-14 18:38:00,
2013-01-14 11:43:00,9.5,-1.5,30.53,North,359,2.0,2.0,60,0.00,,,0.00,WeatherCatV1.11B39,2013-01-14 18:43:00,
2013-01-14 11:48:00,9.6,-2.2,30.52,SE,131,0.0,1.0,58,0.00,,,0.00,WeatherCatV1.11B39,2013-01-14 18:48:00,
2013-01-14 11:53:00,10.1,-2.1,30.52,North,350,1.0,1.0,57,0.00,,,0.00,WeatherCatV1.11B39,2013-01-14 18:53:00,
2013-01-14 11:58:00,10.0,-2.2,30.52,ENE,74,3.0,4.0,57,0.00,,,0.00,WeatherCatV1.11B39,2013-01-14 18:58:00,
2013-01-14 12:03:00,10.2,-2.0,30.51,NNE,15,3.0,3.0,57,0.00,,,0.00,WeatherCatV1.11B39,2013-01-14 19:03:00,
2013-01-14 12:08:00,10.1,-3.2,30.51,ENE,68,2.0,2.0,54,0.00,,,0.00,WeatherCatV1.11B39,2013-01-14 19:08:00,
2013-01-14 12:13:00,10.3,-2.6,30.51,East,87,0.0,1.0,55,0.00,,,0.00,WeatherCatV1.11B39,2013-01-14 19:13:00,
2013-01-14 12:18:00,11.3,-2.1,30.50,NE,44,0.0,1.0,54,0.00,,,0.00,WeatherCatV1.11B39,2013-01-14 19:18:00,
2013-01-14 12:23:00,11.6,-2.6,30.50,NE,56,3.0,3.0,52,0.00,,,0.00,WeatherCatV1.11B39,2013-01-14 19:23:00,
2013-01-14 12:28:00,11.4,-2.4,30.49,NE,46,2.0,4.0,53,0.00,,,0.00,WeatherCatV1.11B39,2013-01-14 19:28:00,
2013-01-14 12:33:00,11.3,-3.3,30.49,East,86,1.0,4.0,51,0.00,,,0.00,WeatherCatV1.11B39,2013-01-14 19:33:00,
2013-01-14 12:38:00,11.7,-2.5,30.49,NE,54,1.0,2.0,52,0.00,,,0.00,WeatherCatV1.11B39,2013-01-14 19:38:00,
2013-01-14 12:43:00,12.2,-2.0,30.49,ENE,59,3.0,3.0,52,0.00,,,0.00,WeatherCatV1.11B39,2013-01-14 19:43:00,
2013-01-14 12:48:00,12.1,-2.9,30.48,ENE,68,2.0,3.0,50,0.00,,,0.00,WeatherCatV1.11B39,2013-01-14 19:48:00,
2013-01-14 12:53:00,12.6,-2.1,30.48,ESE,114,1.0,2.0,51,0.00,,,0.00,WeatherCatV1.11B39,2013-01-14 19:53:00,
2013-01-14 12:58:00,12.8,-2.7,30.48,SSW,200,3.0,3.0,49,0.00,,,0.00,WeatherCatV1.11B39,2013-01-14 19:58:00,
2013-01-14 13:03:00,12.6,-3.3,30.48,SSE,148,1.0,4.0,48,0.00,,,0.00,WeatherCatV1.11B39,2013-01-14 20:03:00,
2013-01-14 13:08:00,12.7,-3.2,30.47,SE,134,4.0,4.0,48,0.00,,,0.00,WeatherCatV1.11B39,2013-01-14 20:08:00,
2013-01-14 13:13:00,12.3,-3.2,30.47,SSE,150,3.0,3.0,49,0.00,,,0.00,WeatherCatV1.11B39,2013-01-14 20:13:00,
2013-01-14 13:18:00,12.7,-2.8,30.47,South,181,2.0,4.0,49,0.00,,,0.00,WeatherCatV1.11B39,2013-01-14 20:18:00,
2013-01-14 13:23:00,13.2,-2.8,30.47,South,190,4.0,5.0,48,0.00,,,0.00,WeatherCatV1.11B39,2013-01-14 20:23:00,
2013-01-14 13:28:00,13.2,-2.8,30.47,SE,141,1.0,5.0,48,0.00,,,0.00,WeatherCatV1.11B39,2013-01-14 20:28:00,
2013-01-14 13:33:00,13.1,-2.4,30.47,SE,138,2.0,4.0,49,0.00,,,0.00,WeatherCatV1.11B39,2013-01-14 20:33:00,
2013-01-14 13:38:00,13.2,-2.3,30.47,ESE,108,6.0,6.0,49,0.00,,,0.00,WeatherCatV1.11B39,2013-01-14 20:38:00,
2013-01-14 13:43:00,12.6,-2.5,30.48,ESE,118,3.0,5.0,50,0.00,,,0.00,WeatherCatV1.11B39,2013-01-14 20:43:00,
2013-01-14 13:48:00,12.6,-2.5,30.48,ESE,112,3.0,6.0,50,0.00,,,0.00,WeatherCatV1.11B39,2013-01-14 20:48:00,
2013-01-14 13:53:00,12.8,-2.7,30.47,South,178,5.0,7.0,49,0.00,,,0.00,WeatherCatV1.11B39,2013-01-14 20:53:00,
2013-01-14 13:58:00,12.9,-2.2,30.47,SE,131,2.0,5.0,50,0.00,,,0.00,WeatherCatV1.11B39,2013-01-14 20:58:00,
2013-01-14 14:03:00,13.2,-2.3,30.47,South,177,6.0,6.0,49,0.00,,,0.00,WeatherCatV1.11B39,2013-01-14 21:03:00,
2013-01-14 14:08:00,13.2,-1.9,30.47,SSW,194,3.0,5.0,50,0.00,,,0.00,WeatherCatV1.11B39,2013-01-14 21:08:00,
2013-01-14 14:13:00,13.6,-2.0,30.47,SSE,155,5.0,7.0,49,0.00,,,0.00,WeatherCatV1.11B39,2013-01-14 21:13:00,
2013-01-14 14:18:00,13.6,-1.5,30.47,WSW,246,2.0,3.0,50,0.00,,,0.00,WeatherCatV1.11B39,2013-01-14 21:18:00,
2013-01-14 14:23:00,14.2,-1.8,30.47,South,180,5.0,7.0,48,0.00,,,0.00,WeatherCatV1.11B39,2013-01-14 21:23:00,
2013-01-14 14:28:00,14.2,-1.8,30.47,SSE,163,5.0,6.0,48,0.00,,,0.00,WeatherCatV1.11B39,2013-01-14 21:28:00,
2013-01-14 14:33:00,14.5,-1.1,30.48,SSE,153,2.0,5.0,49,0.00,,,0.00,WeatherCatV1.11B39,2013-01-14 21:33:00,
2013-01-14 14:38:00,14.3,-1.3,30.48,South,180,1.0,6.0,49,0.00,,,0.00,WeatherCatV1.11B39,2013-01-14 21:38:00,
2013-01-14 14:43:00,14.3,-1.3,30.48,SE,146,0.0,2.0,49,0.00,,,0.00,WeatherCatV1.11B39,2013-01-14 21:43:00,
2013-01-14 14:48:00,14.7,-1.0,30.48,South,187,3.0,3.0,49,0.00,,,0.00,WeatherCatV1.11B39,2013-01-14 21:48:00,
2013-01-14 14:53:00,14.8,-1.3,30.48,SE,140,3.0,4.0,48,0.00,,,0.00,WeatherCatV1.11B39,2013-01-14 21:53:00,
2013-01-14 14:58:00,15.4,0.1,30.48,South,189,4.0,4.0,50,0.00,,,0.00,WeatherCatV1.11B39,2013-01-14 21:58:00,
2013-01-14 15:03:00,15.8,-0.4,30.49,South,179,3.0,4.0,48,0.00,,,0.00,WeatherCatV1.11B39,2013-01-14 22:03:00,
2013-01-14 15:08:00,15.5,-0.6,30.49,SSW,197,7.0,7.0,48,0.00,,,0.00,WeatherCatV1.11B39,2013-01-14 22:08:00,
2013-01-14 15:14:00,15.2,-0.9,30.49,West,281,1.0,4.0,48,0.00,,,0.00,WeatherCatV1.11B39,2013-01-14 22:14:00,
2013-01-14 15:19:00,14.9,-1.2,30.50,East,89,3.0,3.0,48,0.00,,,0.00,WeatherCatV1.11B39,2013-01-14 22:19:00,
2013-01-14 15:24:00,14.6,-2.4,30.50,NNW,339,2.0,6.0,46,0.00,,,0.00,WeatherCatV1.11B39,2013-01-14 22:24:00,
2013-01-14 15:29:00,15.0,-2.9,30.50,North,355,2.0,6.0,44,0.00,,,0.00,WeatherCatV1.11B39,2013-01-14 22:29:00,
2013-01-14 15:34:00,15.0,-3.9,30.50,North,9,6.0,7.0,42,0.00,,,0.00,WeatherCatV1.11B39,2013-01-14 22:34:00,
2013-01-14 15:39:00,15.0,-3.4,30.50,NNW,345,2.0,5.0,43,0.00,,,0.00,WeatherCatV1.11B39,2013-01-14 22:39:00,
2013-01-14 15:44:00,15.0,-3.4,30.50,WNW,297,2.0,6.0,43,0.00,,,0.00,WeatherCatV1.11B39,2013-01-14 22:44:00,
2013-01-14 15:49:00,14.8,-4.1,30.51,NNE,16,12.0,12.0,42,0.00,,,0.00,WeatherCatV1.11B39,2013-01-14 22:49:00,
2013-01-14 15:54:00,14.6,-4.3,30.51,NNW,337,3.0,10.0,42,0.00,,,0.00,WeatherCatV1.11B39,2013-01-14 22:54:00,
2013-01-14 15:59:00,14.1,-4.2,30.51,NNW,345,3.0,7.0,43,0.00,,,0.00,WeatherCatV1.11B39,2013-01-14 22:59:00,
2013-01-14 16:04:00,13.6,-3.8,30.52,WNW,299,1.0,4.0,45,0.00,,,0.00,WeatherCatV1.11B39,2013-01-14 23:04:00,
2013-01-14 16:09:00,13.3,-4.0,30.52,NW,319,4.0,6.0,45,0.00,,,0.00,WeatherCatV1.11B39,2013-01-14 23:09:00,
2013-01-14 16:14:00,13.0,-4.3,30.52,NNW,330,5.0,7.0,45,0.00,,,0.00,WeatherCatV1.11B39,2013-01-14 23:14:00,
2013-01-14 16:19:00,12.8,-4.0,30.52,NNW,340,2.0,5.0,46,0.00,,,0.00,WeatherCatV1.11B39,2013-01-14 23:19:00,
2013-01-14 16:24:00,12.4,-3.9,30.52,WNW,284,1.0,3.0,47,0.00,,,0.00,WeatherCatV1.11B39,2013-01-14 23:24:00,
2013-01-14 16:29:00,11.9,-4.0,30.52,West,262,1.0,1.0,48,0.00,,,0.00,WeatherCatV1.11B39,2013-01-14 23:29:00,
2013-01-14 16:34:00,11.4,-4.4,30.53,WNW,288,3.0,5.0,48,0.00,,,0.00,WeatherCatV1.11B39,2013-01-14 23:34:00,
2013-01-14 16:39:00,11.0,-4.4,30.53,WNW,288,2.0,2.0,49,0.00,,,0.00,WeatherCatV1.11B39,2013-01-14 23:39:00,
2013-01-14 16:44:00,10.7,-4.7,30.53,WNW,293,0.0,1.0,49,0.00,,,0.00,WeatherCatV1.11B39,2013-01-14 23:44:00,
2013-01-14 16:49:00,10.4,-4.1,30.53,WNW,289,1.0,4.0,51,0.00,,,0.00,WeatherCatV1.11B39,2013-01-14 23:49:00,
2013-01-14 16:54:00,9.9,-3.4,30.54,SW,224,0.0,3.0,54,0.00,,,0.00,WeatherCatV1.11B39,2013-01-14 23:54:00,
2013-01-14 16:59:00,9.0,-3.5,30.54,WSW,257,1.0,3.0,56,0.00,,,0.00,WeatherCatV1.11B39,2013-01-14 23:59:00,
2013-01-14 17:04:00,8.4,-3.7,30.55,WSW,242,3.0,4.0,57,0.00,,,0.00,WeatherCatV1.11B39,2013-01-15 00:04:00,
2013-01-14 17:09:00,8.0,-3.7,30.55,WSW,250,1.0,3.0,58,0.00,,,0.00,WeatherCatV1.11B39,2013-01-15 00:09:00,
2013-01-14 17:14:00,7.4,-3.9,30.55,SSW,193,0.0,2.0,59,0.00,,,0.00,WeatherCatV1.11B39,2013-01-15 00:14:00,
2013-01-14 17:19:00,6.9,-4.4,30.56,SW,224,2.0,2.0,59,0.00,,,0.00,WeatherCatV1.11B39,2013-01-15 00:19:00,
2013-01-14 17:24:00,6.7,-4.5,30.56,South,183,1.0,3.0,59,0.00,,,0.00,WeatherCatV1.11B39,2013-01-15 00:24:00,
2013-01-14 17:29:00,6.4,-4.5,30.57,West,259,0.0,1.0,60,0.00,,,0.00,WeatherCatV1.11B39,2013-01-15 00:29:00,
2013-01-14 17:34:00,6.2,-4.7,30.57,WSW,245,2.0,3.0,60,0.00,,,0.00,WeatherCatV1.11B39,2013-01-15 00:34:00,
2013-01-14 17:39:00,6.0,-4.9,30.57,WSW,240,0.0,1.0,60,0.00,,,0.00,WeatherCatV1.11B39,2013-01-15 00:39:00,
2013-01-14 17:44:00,5.8,-5.4,30.58,SW,217,0.0,2.0,59,0.00,,,0.00,WeatherCatV1.11B39,2013-01-15 00:44:00,
2013-01-14 17:49:00,5.7,-5.5,30.58,ESE,106,1.0,1.0,59,0.00,,,0.00,WeatherCatV1.11B39,2013-01-15 00:49:00,
2013-01-14 17:54:00,5.4,-4.4,30.58,South,169,1.0,2.0,63,0.00,,,0.00,WeatherCatV1.11B39,2013-01-15 00:54:00,
2013-01-14 17:59:00,4.8,-4.3,30.58,SW,216,1.0,2.0,65,0.00,,,0.00,WeatherCatV1.11B39,2013-01-15 00:59:00,
2013-01-14 18:04:00,4.2,-4.6,30.59,SE,140,0.0,1.0,66,0.00,,,0.00,WeatherCatV1.11B39,2013-01-15 01:04:00,
2013-01-14 18:09:00,3.8,-4.7,30.59,SE,139,0.0,0.0,67,0.00,,,0.00,WeatherCatV1.11B39,2013-01-15 01:09:00,
2013-01-14 18:14:00,3.3,-4.5,30.59,SW,219,1.0,1.0,69,0.00,,,0.00,WeatherCatV1.11B39,2013-01-15 01:14:00,
2013-01-14 18:19:00,2.7,-5.4,30.59,SSW,195,1.0,1.0,68,0.00,,,0.00,WeatherCatV1.11B39,2013-01-15 01:19:00,
2013-01-14 18:24:00,2.2,-5.6,30.60,SSE,165,0.0,1.0,69,0.00,,,0.00,WeatherCatV1.11B39,2013-01-15 01:24:00,
2013-01-14 18:29:00,1.6,-5.9,30.60,SE,131,0.0,1.0,70,0.00,,,0.00,WeatherCatV1.11B39,2013-01-15 01:29:00,
2013-01-14 18:34:00,1.1,-5.8,30.61,South,185,1.0,1.0,72,0.00,,,0.00,WeatherCatV1.11B39,2013-01-15 01:34:00,
2013-01-14 18:39:00,0.6,-6.3,30.61,SW,228,0.0,1.0,72,0.00,,,0.00,WeatherCatV1.11B39,2013-01-15 01:39:00,
2013-01-14 18:44:00,0.3,-6.6,30.61,SE,146,1.0,1.0,72,0.00,,,0.00,WeatherCatV1.11B39,2013-01-15 01:44:00,
2013-01-14 18:49:00,0.0,-6.3,30.62,South,181,0.0,1.0,74,0.00,,,0.00,WeatherCatV1.11B39,2013-01-15 01:49:00,
2013-01-14 18:54:00,-0.5,-6.5,30.62,South,181,0.0,0.0,75,0.00,,,0.00,WeatherCatV1.11B39,2013-01-15 01:54:00,
2013-01-14 18:59:00,-0.6,-6.9,30.62,SW,228,0.0,1.0,74,0.00,,,0.00,WeatherCatV1.11B39,2013-01-15 01:59:00,
2013-01-14 19:04:00,-0.9,-6.6,30.63,WSW,249,0.0,0.0,76,0.00,,,0.00,WeatherCatV1.11B39,2013-01-15 02:04:00,
2013-01-14 19:09:00,-1.4,-6.6,30.63,ESE,113,1.0,1.0,78,0.00,,,0.00,WeatherCatV1.11B39,2013-01-15 02:09:00,
2013-01-14 19:14:00,-1.2,-6.9,30.63,SSW,210,1.0,3.0,76,0.00,,,0.00,WeatherCatV1.11B39,2013-01-15 02:14:00,
2013-01-14 19:19:00,-1.5,-6.4,30.64,SSW,202,0.0,1.0,79,0.00,,,0.00,WeatherCatV1.11B39,2013-01-15 02:19:00,
2013-01-14 19:24:00,-1.9,-7.0,30.64,SSW,202,0.0,0.0,78,0.00,,,0.00,WeatherCatV1.11B39,2013-01-15 02:24:00,
2013-01-14 19:29:00,-2.2,-7.3,30.64,SSW,202,0.0,0.0,78,0.00,,,0.00,WeatherCatV1.11B39,2013-01-15 02:29:00,
2013-01-14 19:34:00,-2.5,-7.4,30.65,SSW,201,0.0,0.0,79,0.00,,,0.00,WeatherCatV1.11B39,2013-01-15 02:34:00,
2013-01-14 19:39:00,-2.5,-7.4,30.65,ESE,105,0.0,0.0,79,0.00,,,0.00,WeatherCatV1.11B39,2013-01-15 02:39:00,
2013-01-14 19:44:00,-2.9,-7.8,30.65,South,181,1.0,1.0,79,0.00,,,0.00,WeatherCatV1.11B39,2013-01-15 02:44:00,
2013-01-14 19:49:00,-3.4,-7.7,30.65,South,170,1.0,1.0,81,0.00,,,0.00,WeatherCatV1.11B39,2013-01-15 02:49:00,
2013-01-14 19:54:00,-3.6,-7.9,30.66,SSE,154,1.0,2.0,81,0.00,,,0.00,WeatherCatV1.11B39,2013-01-15 02:54:00,
2013-01-14 19:59:00,-4.1,-9.2,30.66,SSE,164,1.0,1.0,78,0.00,,,0.00,WeatherCatV1.11B39,2013-01-15 02:59:00,
2013-01-14 20:04:00,-4.4,-9.2,30.66,South,176,1.0,1.0,79,0.00,,,0.00,WeatherCatV1.11B39,2013-01-15 03:04:00,
2013-01-14 20:09:00,-4.6,-9.4,30.66,SSE,167,0.0,0.0,79,0.00,,,0.00,WeatherCatV1.11B39,2013-01-15 03:09:00,
2013-01-14 20:14:00,-4.8,-9.1,30.66,SSE,149,0.0,1.0,81,0.00,,,0.00,WeatherCatV1.11B39,2013-01-15 03:14:00,
2013-01-14 20:19:00,-4.9,-9.2,30.66,South,169,0.0,1.0,81,0.00,,,0.00,WeatherCatV1.11B39,2013-01-15 03:19:00,
2013-01-14 20:24:00,-5.2,-9.5,30.67,South,179,0.0,0.0,81,0.00,,,0.00,WeatherCatV1.11B39,2013-01-15 03:24:00,
2013-01-14 20:29:00,-5.6,-9.6,30.67,SSE,165,0.0,0.0,82,0.00,,,0.00,WeatherCatV1.11B39,2013-01-15 03:29:00,
2013-01-14 20:34:00,-5.9,-9.7,30.67,South,184,0.0,0.0,83,0.00,,,0.00,WeatherCatV1.11B39,2013-01-15 03:34:00,
2013-01-14 20:39:00,-6.0,-9.1,30.68,WSW,246,0.0,0.0,86,0.00,,,0.00,WeatherCatV1.11B39,2013-01-15 03:39:00,
2013-01-14 20:44:00,-6.1,-9.2,30.68,SW,231,2.0,3.0,86,0.00,,,0.00,WeatherCatV1.11B39,2013-01-15 03:44:00,
2013-01-14 20:49:00,-6.3,-9.6,30.68,ESE,106,1.0,1.0,85,0.00,,,0.00,WeatherCatV1.11B39,2013-01-15 03:49:00,
2013-01-14 20:54:00,-6.4,-9.7,30.68,ESE,108,0.0,0.0,85,0.00,,,0.00,WeatherCatV1.11B39,2013-01-15 03:54:00,
2013-01-14 20:59:00,-6.6,-10.1,30.68,ESE,108,0.0,0.0,84,0.00,,,0.00,WeatherCatV1.11B39,2013-01-15 03:59:00,
2013-01-14 21:04:00,-6.9,-10.2,30.69,ESE,118,0.0,0.0,85,0.00,,,0.00,WeatherCatV1.11B39,2013-01-15 04:04:00,
2013-01-14 21:09:00,-7.1,-10.6,30.69,South,174,0.0,1.0,84,0.00,,,0.00,WeatherCatV1.11B39,2013-01-15 04:09:00,
2013-01-14 21:14:00,-7.4,-10.9,30.68,SSE,159,0.0,0.0,84,0.00,,,0.00,WeatherCatV1.11B39,2013-01-15 04:14:00,
2013-01-14 21:19:00,-7.8,-11.3,30.68,South,180,0.0,0.0,84,0.00,,,0.00,WeatherCatV1.11B39,2013-01-15 04:19:00,
2013-01-14 21:24:00,-8.0,-11.3,30.68,South,171,0.0,1.0,85,0.00,,,0.00,WeatherCatV1.11B39,2013-01-15 04:24:00,
2013-01-14 21:29:00,-8.1,-11.4,30.68,SSE,151,0.0,0.0,85,0.00,,,0.00,WeatherCatV1.11B39,2013-01-15 04:29:00,
2013-01-14 21:34:00,-8.2,-11.5,30.69,WSW,242,0.0,0.0,85,0.00,,,0.00,WeatherCatV1.11B39,2013-01-15 04:34:00,
2013-01-14 21:39:00,-8.4,-11.7,30.69,South,180,0.0,0.0,85,0.00,,,0.00,WeatherCatV1.11B39,2013-01-15 04:39:00,
2013-01-14 21:44:00,-8.6,-11.6,30.68,SSE,148,0.0,0.0,86,0.00,,,0.00,WeatherCatV1.11B39,2013-01-15 04:44:00,
2013-01-14 21:49:00,-8.7,-12.0,30.68,SE,134,0.0,0.0,85,0.00,,,0.00,WeatherCatV1.11B39,2013-01-15 04:49:00,
2013-01-14 21:54:00,-8.9,-12.2,30.68,SW,222,0.0,0.0,85,0.00,,,0.00,WeatherCatV1.11B39,2013-01-15 04:54:00,
2013-01-14 21:59:00,-9.1,-12.4,30.68,SW,222,0.0,0.0,85,0.00,,,0.00,WeatherCatV1.11B39,2013-01-15 04:59:00,
2013-01-14 22:00:00,-9.1,-12.4,30.68,SW,222,0.0,0.0,85,0.00,,,0.00,WeatherCatV1.11B39,2013-01-15 05:00:00,
2013-01-14 22:05:00,-9.4,-12.7,30.69,SE,143,0.0,1.0,85,0.00,,,0.00,WeatherCatV1.11B39,2013-01-15 05:05:00,
2013-01-14 22:10:00,-9.5,-12.5,30.69,SE,141,0.0,0.0,86,0.00,,,0.00,WeatherCatV1.11B39,2013-01-15 05:10:00,
2013-01-14 22:15:00,-9.6,-13.1,30.69,SE,141,0.0,0.0,84,0.00,,,0.00,WeatherCatV1.11B39,2013-01-15 05:15:00,
2013-01-14 22:20:00,-9.9,-13.6,30.70,SE,141,0.0,0.0,83,0.00,,,0.00,WeatherCatV1.11B39,2013-01-15 05:20:00,
2013-01-14 22:25:00,-10.0,-13.2,30.70,SE,141,0.0,0.0,85,0.00,,,0.00,WeatherCatV1.11B39,2013-01-15 05:25:00,
2013-01-14 22:30:00,-10.0,-13.2,30.71,SE,141,0.0,0.0,85,0.00,,,0.00,WeatherCatV1.11B39,2013-01-15 05:30:00,
2013-01-14 22:35:00,-10.1,-13.3,30.71,SE,141,0.0,0.0,85,0.00,,,0.00,WeatherCatV1.11B39,2013-01-15 05:35:00,
2013-01-14 22:40:00,-10.2,-13.4,30.71,SE,141,0.0,0.0,85,0.00,,,0.00,WeatherCatV1.11B39,2013-01-15 05:40:00,
2013-01-14 22:45:00,-10.2,-13.2,30.72,SE,141,0.0,0.0,86,0.00,,,0.00,WeatherCatV1.11B39,2013-01-15 05:45:00,
2013-01-14 22:50:00,-10.3,-13.5,30.72,SE,141,0.0,0.0,85,0.00,,,0.00,WeatherCatV1.11B39,2013-01-15 05:50:00,
2013-01-14 22:55:00,-10.4,-13.4,30.73,SE,134,0.0,1.0,86,0.00,,,0.00,WeatherCatV1.11B39,2013-01-15 05:55:00,
2013-01-14 23:00:00,-10.4,-13.6,30.73,South,179,1.0,1.0,85,0.00,,,0.00,WeatherCatV1.11B39,2013-01-15 06:00:00,
2013-01-14 23:05:00,-10.7,-13.9,30.73,South,176,0.0,1.0,85,0.00,,,0.00,WeatherCatV1.11B39,2013-01-15 06:05:00,
2013-01-14 23:10:00,-11.1,-14.3,30.74,SW,224,1.0,2.0,85,0.00,,,0.00,WeatherCatV1.11B39,2013-01-15 06:10:00,
2013-01-14 23:15:00,-11.3,-14.5,30.74,SSE,158,1.0,1.0,85,0.00,,,0.00,WeatherCatV1.11B39,2013-01-15 06:15:00,
2013-01-14 23:20:00,-11.4,-14.6,30.75,SSE,155,0.0,1.0,85,0.00,,,0.00,WeatherCatV1.11B39,2013-01-15 06:20:00,
2013-01-14 23:25:00,-11.3,-14.5,30.75,SSE,162,2.0,2.0,85,0.00,,,0.00,WeatherCatV1.11B39,2013-01-15 06:25:00,
2013-01-14 23:30:00,-11.5,-15.0,30.75,SSE,167,0.0,2.0,84,0.00,,,0.00,WeatherCatV1.11B39,2013-01-15 06:30:00,
2013-01-14 23:35:00,-11.5,-15.0,30.75,ESE,113,1.0,1.0,84,0.00,,,0.00,WeatherCatV1.11B39,2013-01-15 06:35:00,
2013-01-14 23:40:00,-11.4,-14.6,30.76,ESE,108,0.0,0.0,85,0.00,,,0.00,WeatherCatV1.11B39,2013-01-15 06:40:00,
2013-01-14 23:45:00,-11.5,-15.2,30.76,South,181,0.0,1.0,83,0.00,,,0.00,WeatherCatV1.11B39,2013-01-15 06:45:00,
2013-01-14 23:50:00,-11.7,-15.1,30.76,South,182,0.0,0.0,84,0.00,,,0.00,WeatherCatV1.11B39,2013-01-15 06:50:00,
2013-01-14 23:55:00,-12.0,-15.7,30.77,South,182,0.0,0.0,83,0.00,,,0.00,WeatherCatV1.11B39,2013-01-15 06:55:00,